Time;durP1;ratioP1;P1;durP2;ratioP2;P2;SDS_P1;SDS_P2;PMS_P1;PMS_P2;Temp;Humidity;BMP_temperature;BMP_pressure;BME280_temperature;BME280_humidity;BME280_pressure;Samples;Min_cycle;Max_cycle;Signal;HPM_P1;HPM_P2
2022/09/19 00:01:38;;;;;;;;;;;21.60;44.60;;;;;;484490;246;1168;-73
2022/09/19 00:03:39;;;;;;;;;;;21.60;44.60;;;;;;484318;246;1447;-73
2022/09/19 00:05:40;;;;;;;;;;;21.60;44.60;;;;;;484474;246;1197;-73
2022/09/19 00:07:43;;;;;;;;;;;21.60;44.60;;;;;;484283;246;1209;-73
2022/09/19 00:09:43;;;;;;;;;;;21.60;44.70;;;;;;484280;246;1208;-73
2022/09/19 00:11:45;;;;;;;;;;;21.50;44.70;;;;;;484270;243;2195;-73
2022/09/19 00:13:47;;;;;;;;;;;21.60;44.80;;;;;;484329;246;1304;-73
2022/09/19 00:15:47;;;;;;;;;;;21.60;44.90;;;;;;484195;246;1510;-73
2022/09/19 00:17:49;;;;;;;;;;;21.50;44.80;;;;;;484274;246;1190;-73
2022/09/19 00:19:51;;;;;;;;;;;21.60;44.90;;;;;;484408;246;1161;-74
2022/09/19 00:21:51;;;;;;;;;;;21.60;44.90;;;;;;484089;246;1453;-74
2022/09/19 00:26:12;;;;;;;;;;;21.60;44.90;;;;;;484138;246;1223;-74
2022/09/19 00:28:13;;;;;;;;;;;21.60;44.90;;;;;;484361;246;1381;-74
2022/09/19 00:30:15;;;;;;;;;;;21.60;44.90;;;;;;484355;246;1217;-74
2022/09/19 00:32:16;;;;;;;;;;;21.60;45.00;;;;;;484547;246;2148;-74
2022/09/19 00:34:17;;;;;;;;;;;21.50;45.00;;;;;;484391;246;1161;-73
2022/09/19 00:36:19;;;;;;;;;;;21.60;45.00;;;;;;484694;246;1290;-73
2022/09/19 00:38:20;;;;;;;;;;;21.60;45.00;;;;;;484518;246;1188;-74
2022/09/19 00:40:22;;;;;;;;;;;21.60;45.00;;;;;;484285;246;1190;-74
2022/09/19 00:42:23;;;;;;;;;;;21.50;45.10;;;;;;484329;246;1263;-74
2022/09/19 00:44:25;;;;;;;;;;;21.50;45.10;;;;;;484300;246;1185;-73
2022/09/19 00:46:26;;;;;;;;;;;21.60;45.00;;;;;;484574;246;1085;-73
2022/09/19 00:48:27;;;;;;;;;;;21.60;44.90;;;;;;484341;246;1070;-73
2022/09/19 00:50:28;;;;;;;;;;;21.60;44.90;;;;;;484320;246;1123;-73
2022/09/19 00:52:30;;;;;;;;;;;21.60;44.90;;;;;;484299;246;2172;-73
2022/09/19 00:54:31;;;;;;;;;;;21.60;44.90;;;;;;484299;246;1219;-73
2022/09/19 00:56:32;;;;;;;;;;;21.60;44.80;;;;;;484436;246;1257;-73
2022/09/19 00:58:34;;;;;;;;;;;21.50;45.00;;;;;;484315;246;1187;-73
2022/09/19 01:00:35;;;;;;;;;;;21.50;45.00;;;;;;484313;246;1080;-73
2022/09/19 01:02:36;;;;;;;;;;;21.50;44.90;;;;;;484323;246;1185;-73
2022/09/19 01:04:38;;;;;;;;;;;21.60;44.90;;;;;;484457;246;1237;-73
2022/09/19 01:06:40;;;;;;;;;;;21.60;44.80;;;;;;484545;246;1241;-73
2022/09/19 01:08:42;;;;;;;;;;;21.50;44.70;;;;;;484354;246;1276;-73
2022/09/19 01:10:42;;;;;;;;;;;21.50;44.70;;;;;;484190;246;1417;-73
2022/09/19 01:12:46;;;;;;;;;;;21.50;44.70;;;;;;484317;246;2208;-73
2022/09/19 01:14:46;;;;;;;;;;;21.60;44.70;;;;;;484290;246;1422;-73
2022/09/19 01:16:46;;;;;;;;;;;21.50;44.50;;;;;;484228;246;1511;-74
2022/09/19 01:18:47;;;;;;;;;;;21.60;44.50;;;;;;484292;246;1327;-74
2022/09/19 01:20:50;;;;;;;;;;;21.50;44.50;;;;;;484305;246;1151;-74
2022/09/19 01:22:50;;;;;;;;;;;21.50;44.50;;;;;;484701;246;1444;-73
2022/09/19 01:24:53;;;;;;;;;;;21.60;44.40;;;;;;484535;246;1214;-73
2022/09/19 01:26:56;;;;;;;;;;;21.60;44.30;;;;;;484198;246;1485;-73
2022/09/19 01:28:54;;;;;;;;;;;21.60;44.30;;;;;;484051;246;1496;-73
2022/09/19 01:31:16;;;;;;;;;;;21.60;44.30;;;;;;484279;246;1198;-73
2022/09/19 01:32:57;;;;;;;;;;;21.50;44.40;;;;;;483041;246;2204;-74
2022/09/19 01:35:02;;;;;;;;;;;21.50;44.30;;;;;;484470;246;1187;-74
2022/09/19 01:37:02;;;;;;;;;;;21.50;44.20;;;;;;484049;246;1462;-73
2022/09/19 01:39:02;;;;;;;;;;;21.60;44.20;;;;;;484222;246;1444;-73
2022/09/19 01:41:03;;;;;;;;;;;21.60;44.20;;;;;;484315;246;1189;-73
2022/09/19 01:43:06;;;;;;;;;;;21.50;44.20;;;;;;484331;246;1314;-73
2022/09/19 01:45:06;;;;;;;;;;;21.50;44.20;;;;;;484248;242;1466;-73
2022/09/19 01:47:08;;;;;;;;;;;21.50;44.20;;;;;;484424;246;1134;-73
2022/09/19 01:49:09;;;;;;;;;;;21.50;44.20;;;;;;484241;246;1246;-73
2022/09/19 01:51:10;;;;;;;;;;;21.50;44.20;;;;;;484448;246;1227;-73
2022/09/19 01:53:11;;;;;;;;;;;21.50;44.20;;;;;;484301;246;2192;-74
2022/09/19 01:55:13;;;;;;;;;;;21.60;44.20;;;;;;484474;246;1230;-74
2022/09/19 01:57:14;;;;;;;;;;;21.50;44.10;;;;;;484303;246;1372;-74
2022/09/19 01:59:15;;;;;;;;;;;21.60;44.20;;;;;;484341;246;1271;-73
2022/09/19 02:01:18;;;;;;;;;;;21.50;44.20;;;;;;484292;246;1224;-73
2022/09/19 02:03:22;;;;;;;;;;;21.60;44.10;;;;;;484280;246;1420;-73
2022/09/19 02:05:21;;;;;;;;;;;21.60;44.10;;;;;;484084;242;1441;-73
2022/09/19 02:07:23;;;;;;;;;;;21.50;44.10;;;;;;484276;246;1618;-73
2022/09/19 02:09:22;;;;;;;;;;;21.50;44.10;;;;;;484280;246;1365;-74
2022/09/19 02:11:24;;;;;;;;;;;21.50;44.00;;;;;;484330;242;1128;-74
2022/09/19 02:13:25;;;;;;;;;;;21.50;44.20;;;;;;484643;246;2195;-73
2022/09/19 02:15:28;;;;;;;;;;;21.50;44.20;;;;;;484720;246;1103;-73
2022/09/19 02:17:32;;;;;;;;;;;21.50;44.10;;;;;;484292;246;1593;-73
2022/09/19 02:19:32;;;;;;;;;;;21.50;44.10;;;;;;484095;246;1412;-73
2022/09/19 02:21:30;;;;;;;;;;;21.50;44.20;;;;;;484233;246;1494;-73
2022/09/19 02:23:33;;;;;;;;;;;21.50;44.10;;;;;;484340;246;1074;-73
2022/09/19 02:25:33;;;;;;;;;;;21.40;44.00;;;;;;484257;246;1469;-74
2022/09/19 02:27:36;;;;;;;;;;;21.40;44.10;;;;;;484692;246;1092;-74
2022/09/19 02:29:36;;;;;;;;;;;21.50;44.00;;;;;;484203;246;1587;-74
2022/09/19 02:31:37;;;;;;;;;;;21.40;44.00;;;;;;484364;246;1149;-74
2022/09/19 02:33:39;;;;;;;;;;;21.50;44.00;;;;;;484357;246;2203;-73
2022/09/19 02:35:40;;;;;;;;;;;21.60;43.80;;;;;;484308;246;1462;-74
2022/09/19 02:37:41;;;;;;;;;;;21.60;43.70;;;;;;484402;246;1188;-74
2022/09/19 02:39:42;;;;;;;;;;;21.60;43.60;;;;;;484316;246;1167;-74
2022/09/19 02:41:47;;;;;;;;;;;21.60;43.70;;;;;;484511;246;1115;-74
2022/09/19 02:43:46;;;;;;;;;;;21.60;43.60;;;;;;484129;246;1467;-74
2022/09/19 02:45:47;;;;;;;;;;;21.60;43.50;;;;;;484513;246;1123;-73
2022/09/19 02:47:48;;;;;;;;;;;21.60;43.40;;;;;;484440;245;1390;-73
2022/09/19 02:49:50;;;;;;;;;;;21.60;43.50;;;;;;484501;246;1390;-73
2022/09/19 02:51:51;;;;;;;;;;;21.60;43.40;;;;;;484254;246;1183;-73
2022/09/19 02:53:52;;;;;;;;;;;21.60;43.40;;;;;;484777;246;2192;-73
2022/09/19 02:55:55;;;;;;;;;;;21.70;43.30;;;;;;484220;246;1198;-73
2022/09/19 02:57:56;;;;;;;;;;;21.70;43.30;;;;;;484298;246;1338;-73
2022/09/19 02:59:58;;;;;;;;;;;21.60;43.40;;;;;;484399;246;1292;-73
2022/09/19 03:01:58;;;;;;;;;;;21.70;43.30;;;;;;484088;242;1672;-73
2022/09/19 03:04:15;;;;;;;;;;;21.60;43.30;;;;;;484346;246;1129;-73
2022/09/19 03:06:16;;;;;;;;;;;21.60;43.20;;;;;;484160;246;1212;-73
2022/09/19 03:08:18;;;;;;;;;;;21.60;43.20;;;;;;484384;246;1137;-73
2022/09/19 03:10:19;;;;;;;;;;;21.60;43.20;;;;;;484342;246;1192;-73
2022/09/19 03:12:21;;;;;;;;;;;21.60;43.20;;;;;;484772;246;2194;-73
2022/09/19 03:14:22;;;;;;;;;;;21.60;43.10;;;;;;484358;246;1423;-73
2022/09/19 03:16:23;;;;;;;;;;;21.70;43.10;;;;;;484344;246;1368;-73
2022/09/19 03:18:24;;;;;;;;;;;21.60;43.00;;;;;;484672;246;1201;-73
2022/09/19 03:20:26;;;;;;;;;;;21.60;43.10;;;;;;484488;246;1234;-73
2022/09/19 03:22:27;;;;;;;;;;;21.50;43.20;;;;;;484329;246;1090;-73
2022/09/19 03:24:28;;;;;;;;;;;21.60;43.30;;;;;;484357;246;1294;-73
2022/09/19 03:26:30;;;;;;;;;;;21.60;43.20;;;;;;484318;246;1196;-73
2022/09/19 03:28:32;;;;;;;;;;;21.60;43.20;;;;;;484348;246;1200;-73
2022/09/19 03:30:33;;;;;;;;;;;21.60;43.10;;;;;;484327;246;1137;-73
2022/09/19 03:32:35;;;;;;;;;;;21.60;43.10;;;;;;484475;246;2203;-73
2022/09/19 03:34:37;;;;;;;;;;;21.60;43.10;;;;;;484286;246;1193;-74
2022/09/19 03:36:37;;;;;;;;;;;21.60;43.00;;;;;;484279;246;1392;-74
2022/09/19 03:38:40;;;;;;;;;;;21.60;43.00;;;;;;484345;246;1298;-74
2022/09/19 03:40:40;;;;;;;;;;;21.60;43.00;;;;;;484240;246;1414;-73
2022/09/19 03:42:43;;;;;;;;;;;21.60;42.90;;;;;;484424;246;1232;-73
2022/09/19 03:44:42;;;;;;;;;;;21.60;43.00;;;;;;484244;246;1396;-74
2022/09/19 03:46:44;;;;;;;;;;;21.60;42.90;;;;;;484354;246;1354;-74
2022/09/19 03:48:46;;;;;;;;;;;21.60;42.90;;;;;;484313;246;1235;-74
2022/09/19 03:50:46;;;;;;;;;;;21.70;42.90;;;;;;484246;246;1452;-74
2022/09/19 03:52:49;;;;;;;;;;;21.60;42.90;;;;;;484290;246;2192;-74
2022/09/19 03:54:49;;;;;;;;;;;21.60;42.90;;;;;;484220;246;1407;-74
2022/09/19 03:56:50;;;;;;;;;;;21.60;42.80;;;;;;484376;246;1245;-73
2022/09/19 03:58:52;;;;;;;;;;;21.60;42.80;;;;;;484285;246;1143;-74
2022/09/19 04:00:53;;;;;;;;;;;21.60;42.80;;;;;;484359;246;1216;-74
2022/09/19 04:02:56;;;;;;;;;;;21.60;42.70;;;;;;484490;246;1363;-74
2022/09/19 04:04:56;;;;;;;;;;;21.60;42.80;;;;;;484247;246;1521;-74
2022/09/19 04:06:57;;;;;;;;;;;21.60;42.80;;;;;;484572;246;1233;-74
2022/09/19 04:09:00;;;;;;;;;;;21.60;42.80;;;;;;484671;246;1562;-74
2022/09/19 04:11:00;;;;;;;;;;;21.60;42.80;;;;;;484294;246;1419;-74
2022/09/19 04:13:02;;;;;;;;;;;21.60;42.80;;;;;;484361;246;2196;-74
2022/09/19 04:15:03;;;;;;;;;;;21.60;42.70;;;;;;484327;246;1181;-74
2022/09/19 04:17:07;;;;;;;;;;;21.60;42.70;;;;;;484313;246;1209;-74
2022/09/19 04:19:09;;;;;;;;;;;21.60;42.70;;;;;;484160;246;1429;-74
2022/09/19 04:21:08;;;;;;;;;;;21.70;42.60;;;;;;484116;246;1583;-73
2022/09/19 04:23:10;;;;;;;;;;;21.60;42.70;;;;;;484363;246;1473;-73
2022/09/19 04:25:10;;;;;;;;;;;21.60;42.70;;;;;;484185;246;1457;-73
2022/09/19 04:27:13;;;;;;;;;;;21.60;42.70;;;;;;484792;246;1460;-73
2022/09/19 04:29:13;;;;;;;;;;;21.60;42.60;;;;;;484250;246;1484;-73
2022/09/19 04:31:14;;;;;;;;;;;21.60;42.60;;;;;;484447;246;1254;-73
2022/09/19 04:33:17;;;;;;;;;;;21.60;42.60;;;;;;484333;246;2184;-73
2022/09/19 04:35:17;;;;;;;;;;;21.60;42.60;;;;;;484362;246;1528;-73
2022/09/19 04:37:18;;;;;;;;;;;21.60;42.70;;;;;;484302;246;1340;-73
2022/09/19 04:39:19;;;;;;;;;;;21.60;42.60;;;;;;484664;246;1205;-73
2022/09/19 04:41:21;;;;;;;;;;;21.60;42.70;;;;;;484129;246;1211;-73
2022/09/19 04:43:23;;;;;;;;;;;21.60;42.70;;;;;;484313;246;1158;-73
2022/09/19 04:45:24;;;;;;;;;;;21.60;42.70;;;;;;484223;246;1455;-73
2022/09/19 04:47:25;;;;;;;;;;;21.60;42.60;;;;;;484324;246;1138;-73
2022/09/19 04:49:34;;;;;;;;;;;21.60;42.60;;;;;;484440;246;1223;-73
2022/09/19 04:51:31;;;;;;;;;;;21.50;42.50;;;;;;483866;246;1355;-73
2022/09/19 04:53:31;;;;;;;;;;;21.60;42.60;;;;;;484064;246;2187;-73
2022/09/19 04:55:31;;;;;;;;;;;21.60;42.60;;;;;;484244;246;1428;-73
2022/09/19 04:57:32;;;;;;;;;;;21.60;42.60;;;;;;484270;246;1241;-73
2022/09/19 04:59:33;;;;;;;;;;;21.60;42.60;;;;;;484457;246;1119;-73
2022/09/19 05:01:35;;;;;;;;;;;21.60;42.70;;;;;;484300;246;1102;-74
2022/09/19 05:03:36;;;;;;;;;;;21.60;42.70;;;;;;484379;246;1381;-73
2022/09/19 05:05:37;;;;;;;;;;;21.60;42.60;;;;;;484344;246;1107;-73
2022/09/19 05:07:39;;;;;;;;;;;21.60;42.60;;;;;;484528;246;1159;-74
2022/09/19 05:09:42;;;;;;;;;;;21.60;42.70;;;;;;484399;246;1224;-74
2022/09/19 05:11:42;;;;;;;;;;;21.60;42.70;;;;;;484161;246;1484;-74
2022/09/19 05:13:43;;;;;;;;;;;21.60;42.70;;;;;;484201;246;2220;-74
2022/09/19 05:15:44;;;;;;;;;;;21.60;42.60;;;;;;484392;246;1146;-74
2022/09/19 05:17:49;;;;;;;;;;;21.60;42.60;;;;;;484333;246;1150;-74
2022/09/19 05:19:46;;;;;;;;;;;21.60;42.60;;;;;;484059;246;1612;-73
2022/09/19 05:21:48;;;;;;;;;;;21.60;42.60;;;;;;484307;246;1068;-73
2022/09/19 05:23:49;;;;;;;;;;;21.60;42.60;;;;;;484503;246;1150;-73
2022/09/19 05:25:53;;;;;;;;;;;21.60;42.60;;;;;;484510;246;1208;-73
2022/09/19 05:27:52;;;;;;;;;;;21.60;42.70;;;;;;484128;246;1578;-73
2022/09/19 05:29:55;;;;;;;;;;;21.60;42.70;;;;;;484144;246;1144;-73
2022/09/19 05:32:01;;;;;;;;;;;21.60;42.70;;;;;;484075;246;1253;-73
2022/09/19 05:33:56;;;;;;;;;;;21.50;42.60;;;;;;483733;246;2200;-73
2022/09/19 05:36:00;;;;;;;;;;;21.50;42.70;;;;;;484383;246;1103;-74
2022/09/19 05:37:59;;;;;;;;;;;21.50;42.70;;;;;;484061;246;1402;-73
2022/09/19 05:40:00;;;;;;;;;;;21.50;42.60;;;;;;484234;246;1222;-73
2022/09/19 05:42:01;;;;;;;;;;;21.60;42.60;;;;;;484223;246;1039;-73
2022/09/19 05:44:03;;;;;;;;;;;21.50;42.60;;;;;;484216;246;1121;-73
2022/09/19 05:46:04;;;;;;;;;;;21.60;42.50;;;;;;484275;246;1080;-73
2022/09/19 05:48:06;;;;;;;;;;;21.60;42.50;;;;;;484263;246;1072;-73
2022/09/19 05:50:08;;;;;;;;;;;21.60;42.60;;;;;;484466;246;1136;-73
2022/09/19 05:54:29;;;;;;;;;;;21.60;42.50;;;;;;484128;246;2173;-73
2022/09/19 05:56:30;;;;;;;;;;;21.60;42.50;;;;;;484191;246;1303;-73
2022/09/19 05:58:33;;;;;;;;;;;21.60;42.50;;;;;;484221;246;1120;-73
2022/09/19 06:00:33;;;;;;;;;;;21.70;42.50;;;;;;484229;246;1486;-73
2022/09/19 06:02:34;;;;;;;;;;;21.60;42.50;;;;;;484117;246;1139;-74
2022/09/19 06:04:35;;;;;;;;;;;21.60;42.50;;;;;;484070;246;1150;-73
2022/09/19 06:06:37;;;;;;;;;;;21.60;42.50;;;;;;483981;246;1217;-74
2022/09/19 06:08:38;;;;;;;;;;;21.60;42.50;;;;;;484246;246;1212;-74
2022/09/19 06:10:40;;;;;;;;;;;21.60;42.50;;;;;;484029;246;1136;-74
2022/09/19 06:12:41;;;;;;;;;;;21.60;42.60;;;;;;484138;246;1117;-73
2022/09/19 06:14:42;;;;;;;;;;;21.60;42.50;;;;;;484132;246;2169;-73
2022/09/19 06:16:44;;;;;;;;;;;21.70;42.50;;;;;;484213;246;1152;-73
2022/09/19 06:18:45;;;;;;;;;;;21.70;42.60;;;;;;484172;246;1178;-73
2022/09/19 06:20:47;;;;;;;;;;;21.60;42.50;;;;;;484255;246;1140;-74
2022/09/19 06:22:49;;;;;;;;;;;21.60;42.60;;;;;;484053;246;1203;-74
2022/09/19 06:24:49;;;;;;;;;;;21.60;42.60;;;;;;484097;246;1427;-74
2022/09/19 06:26:53;;;;;;;;;;;21.60;42.60;;;;;;484149;246;1143;-74
2022/09/19 06:28:52;;;;;;;;;;;21.60;42.60;;;;;;484030;246;1356;-74
2022/09/19 06:30:53;;;;;;;;;;;21.70;42.50;;;;;;484173;246;1159;-74
2022/09/19 06:32:55;;;;;;;;;;;21.70;42.50;;;;;;483991;246;1208;-74
2022/09/19 06:34:56;;;;;;;;;;;21.70;42.50;;;;;;484131;246;2224;-74
2022/09/19 06:36:58;;;;;;;;;;;21.70;42.50;;;;;;483972;246;1069;-74
2022/09/19 06:38:59;;;;;;;;;;;21.70;42.60;;;;;;484229;246;1105;-74
2022/09/19 06:41:00;;;;;;;;;;;21.70;42.50;;;;;;484196;246;1145;-73
2022/09/19 06:43:02;;;;;;;;;;;21.70;42.50;;;;;;484106;246;1194;-73
2022/09/19 06:45:05;;;;;;;;;;;21.70;42.50;;;;;;484251;246;1195;-73
2022/09/19 06:47:05;;;;;;;;;;;21.70;42.60;;;;;;483915;246;1946;-73
2022/09/19 06:49:07;;;;;;;;;;;21.60;42.60;;;;;;484265;246;1187;-73
2022/09/19 06:51:08;;;;;;;;;;;21.70;42.60;;;;;;484059;246;1291;-73
2022/09/19 06:53:09;;;;;;;;;;;21.70;42.60;;;;;;484107;246;1347;-73
2022/09/19 06:55:10;;;;;;;;;;;21.70;42.50;;;;;;484328;246;2141;-73
2022/09/19 06:57:11;;;;;;;;;;;21.70;42.60;;;;;;484114;246;1240;-73
2022/09/19 06:59:13;;;;;;;;;;;21.60;42.50;;;;;;484226;246;1161;-73
2022/09/19 07:01:15;;;;;;;;;;;21.60;42.60;;;;;;484136;246;1076;-73
2022/09/19 07:03:15;;;;;;;;;;;21.60;42.60;;;;;;484193;246;1374;-73
2022/09/19 07:05:17;;;;;;;;;;;21.70;42.60;;;;;;484182;246;1101;-73
2022/09/19 07:07:18;;;;;;;;;;;21.60;42.60;;;;;;484135;246;1155;-73
2022/09/19 07:09:19;;;;;;;;;;;21.70;42.60;;;;;;483952;246;1221;-73
2022/09/19 07:11:21;;;;;;;;;;;21.70;42.60;;;;;;484029;246;1130;-73
2022/09/19 07:13:22;;;;;;;;;;;21.70;42.60;;;;;;484124;246;1167;-73
2022/09/19 07:15:23;;;;;;;;;;;21.70;42.60;;;;;;484009;246;2133;-73
2022/09/19 07:17:25;;;;;;;;;;;21.70;42.50;;;;;;483929;246;1200;-73
2022/09/19 07:19:26;;;;;;;;;;;21.70;42.50;;;;;;484117;246;1152;-74
2022/09/19 07:21:27;;;;;;;;;;;21.70;42.60;;;;;;484127;246;1079;-73
2022/09/19 07:23:29;;;;;;;;;;;21.70;42.50;;;;;;483961;246;1131;-73
2022/09/19 07:25:30;;;;;;;;;;;21.70;42.60;;;;;;484035;246;1266;-73
2022/09/19 07:27:31;;;;;;;;;;;21.70;42.60;;;;;;483869;246;1144;-73
2022/09/19 07:29:33;;;;;;;;;;;21.70;42.60;;;;;;483984;246;1122;-73
2022/09/19 07:31:34;;;;;;;;;;;21.70;42.60;;;;;;484004;246;1159;-73
2022/09/19 07:33:35;;;;;;;;;;;21.70;42.60;;;;;;483984;246;1175;-73
2022/09/19 07:35:37;;;;;;;;;;;21.70;42.60;;;;;;484086;246;2184;-73
2022/09/19 07:37:38;;;;;;;;;;;21.70;42.60;;;;;;483860;246;1161;-73
2022/09/19 07:39:39;;;;;;;;;;;21.70;42.60;;;;;;483929;246;1156;-73
2022/09/19 07:41:41;;;;;;;;;;;21.80;42.60;;;;;;483935;246;1188;-73
2022/09/19 07:43:42;;;;;;;;;;;21.80;42.60;;;;;;483941;246;1168;-74
2022/09/19 07:45:43;;;;;;;;;;;21.70;42.60;;;;;;483786;246;1142;-73
2022/09/19 07:47:45;;;;;;;;;;;21.70;42.70;;;;;;484014;246;1221;-74
2022/09/19 07:49:46;;;;;;;;;;;21.70;42.70;;;;;;484056;246;1140;-74
2022/09/19 07:51:47;;;;;;;;;;;21.70;42.80;;;;;;483998;246;1160;-74
2022/09/19 07:53:49;;;;;;;;;;;21.70;42.90;;;;;;484067;246;1330;-74
2022/09/19 07:55:51;;;;;;;;;;;21.70;42.80;;;;;;483904;246;2191;-73
2022/09/19 07:57:52;;;;;;;;;;;21.70;42.90;;;;;;483823;246;1215;-73
2022/09/19 07:59:54;;;;;;;;;;;21.70;42.80;;;;;;483894;246;1129;-73
2022/09/19 08:01:55;;;;;;;;;;;21.70;42.80;;;;;;483917;246;1398;-73
2022/09/19 08:03:56;;;;;;;;;;;21.70;42.80;;;;;;483880;246;1070;-73
2022/09/19 08:05:58;;;;;;;;;;;21.70;42.80;;;;;;484041;246;1064;-73
2022/09/19 08:07:59;;;;;;;;;;;21.70;42.80;;;;;;483961;246;1132;-73
2022/09/19 08:10:01;;;;;;;;;;;21.70;42.90;;;;;;484132;246;1113;-73
2022/09/19 08:12:02;;;;;;;;;;;21.70;43.00;;;;;;484015;246;1099;-73
2022/09/19 08:14:03;;;;;;;;;;;21.70;43.00;;;;;;484133;246;2203;-73
2022/09/19 08:16:06;;;;;;;;;;;21.70;43.00;;;;;;484065;246;1056;-73
2022/09/19 08:18:06;;;;;;;;;;;21.70;43.00;;;;;;483783;246;1433;-74
2022/09/19 08:20:07;;;;;;;;;;;21.70;43.20;;;;;;483956;246;1282;-74
2022/09/19 08:22:09;;;;;;;;;;;21.70;43.10;;;;;;483974;246;1138;-73
2022/09/19 08:24:10;;;;;;;;;;;21.70;43.10;;;;;;483901;246;1303;-73
2022/09/19 08:26:11;;;;;;;;;;;21.70;43.00;;;;;;483968;246;1085;-74
2022/09/19 08:28:12;;;;;;;;;;;21.80;43.00;;;;;;483965;246;1087;-73
2022/09/19 08:30:14;;;;;;;;;;;21.80;43.00;;;;;;484021;246;1186;-73
2022/09/19 08:32:15;;;;;;;;;;;21.80;43.00;;;;;;484106;246;1145;-73
2022/09/19 08:34:16;;;;;;;;;;;21.80;43.00;;;;;;484091;246;2204;-73
2022/09/19 08:36:18;;;;;;;;;;;21.80;43.10;;;;;;484061;246;1071;-73
2022/09/19 08:38:19;;;;;;;;;;;21.80;43.10;;;;;;484064;246;1119;-73
2022/09/19 08:40:21;;;;;;;;;;;21.70;43.20;;;;;;483974;246;1101;-73
2022/09/19 08:42:22;;;;;;;;;;;21.70;43.30;;;;;;484072;246;1373;-73
2022/09/19 08:44:23;;;;;;;;;;;21.80;43.40;;;;;;484223;246;1051;-73
2022/09/19 08:46:24;;;;;;;;;;;21.70;43.40;;;;;;484087;246;1083;-74
2022/09/19 08:48:26;;;;;;;;;;;21.70;43.40;;;;;;484070;246;1130;-74
2022/09/19 08:50:27;;;;;;;;;;;21.70;43.50;;;;;;484062;246;1122;-73
2022/09/19 08:52:28;;;;;;;;;;;21.70;43.40;;;;;;484013;246;1076;-73
2022/09/19 08:54:30;;;;;;;;;;;21.70;43.50;;;;;;484020;246;2165;-73
2022/09/19 08:56:31;;;;;;;;;;;21.80;43.40;;;;;;483975;246;1112;-73
2022/09/19 08:58:34;;;;;;;;;;;21.80;43.40;;;;;;484092;246;1036;-73
2022/09/19 09:00:34;;;;;;;;;;;21.80;43.40;;;;;;483949;246;1414;-73
2022/09/19 09:02:36;;;;;;;;;;;21.80;43.40;;;;;;483826;246;1115;-73
2022/09/19 09:04:37;;;;;;;;;;;21.90;43.40;;;;;;484157;246;1070;-73
2022/09/19 09:06:38;;;;;;;;;;;21.80;43.40;;;;;;483851;246;1293;-74
2022/09/19 09:08:39;;;;;;;;;;;21.90;43.50;;;;;;484047;246;1068;-74
2022/09/19 09:10:42;;;;;;;;;;;21.80;43.50;;;;;;483935;246;1015;-73
2022/09/19 09:12:42;;;;;;;;;;;21.80;43.40;;;;;;484033;246;1337;-73
2022/09/19 09:14:46;;;;;;;;;;;21.80;43.50;;;;;;483996;246;2165;-73
2022/09/19 09:16:45;;;;;;;;;;;21.90;43.60;;;;;;483833;246;1398;-73
2022/09/19 09:18:46;;;;;;;;;;;21.90;43.50;;;;;;484008;246;1180;-73
2022/09/19 09:20:48;;;;;;;;;;;21.90;43.50;;;;;;484037;246;1192;-73
2022/09/19 09:22:49;;;;;;;;;;;21.90;43.50;;;;;;483941;246;1214;-73
2022/09/19 09:24:51;;;;;;;;;;;21.90;43.60;;;;;;484069;246;1227;-73
2022/09/19 09:26:52;;;;;;;;;;;21.80;43.50;;;;;;484090;246;1174;-73
2022/09/19 09:28:55;;;;;;;;;;;21.90;43.60;;;;;;483928;246;1098;-73
2022/09/19 09:30:55;;;;;;;;;;;21.90;43.50;;;;;;483963;246;1400;-73
2022/09/19 09:32:57;;;;;;;;;;;21.90;43.60;;;;;;483824;246;1178;-73
2022/09/19 09:34:58;;;;;;;;;;;21.70;43.60;;;;;;483890;246;2396;-73
2022/09/19 09:37:00;;;;;;;;;;;21.70;43.80;;;;;;483844;246;1116;-73
2022/09/19 09:39:02;;;;;;;;;;;21.70;43.80;;;;;;483911;246;1386;-73
2022/09/19 09:43:23;;;;;;;;;;;21.70;43.80;;;;;;483872;246;1159;-73
2022/09/19 09:45:25;;;;;;;;;;;21.70;43.80;;;;;;483848;246;1240;-73
2022/09/19 09:47:25;;;;;;;;;;;21.70;43.90;;;;;;483802;246;1250;-73
2022/09/19 09:49:27;;;;;;;;;;;21.60;43.90;;;;;;483851;246;1125;-73
2022/09/19 09:51:28;;;;;;;;;;;21.60;43.80;;;;;;483700;246;2015;-73
2022/09/19 09:53:29;;;;;;;;;;;21.60;44.00;;;;;;483721;246;1383;-73
2022/09/19 09:57:50;;;;;;;;;;;21.60;44.10;;;;;;483980;246;1184;-73
2022/09/19 10:04:30;;;;;;;;;;;21.60;43.80;;;;;;483981;246;1301;-73
2022/09/19 10:06:31;;;;;;;;;;;21.60;43.70;;;;;;483799;246;1250;-73
2022/09/19 10:08:33;;;;;;;;;;;21.70;43.80;;;;;;484052;246;1258;-73
2022/09/19 10:10:34;;;;;;;;;;;21.70;43.80;;;;;;484043;246;1460;-73
2022/09/19 10:12:35;;;;;;;;;;;21.60;43.70;;;;;;484071;246;1289;-73
2022/09/19 10:14:37;;;;;;;;;;;21.70;43.70;;;;;;484037;246;1182;-73
2022/09/19 10:16:38;;;;;;;;;;;21.70;43.70;;;;;;484018;246;2239;-73
2022/09/19 10:18:39;;;;;;;;;;;21.70;43.60;;;;;;484111;246;1074;-73
2022/09/19 10:20:41;;;;;;;;;;;21.70;43.60;;;;;;484042;246;1090;-73
2022/09/19 10:22:42;;;;;;;;;;;21.60;43.70;;;;;;483944;246;1159;-73
2022/09/19 10:24:44;;;;;;;;;;;21.60;43.70;;;;;;484070;246;1106;-73
2022/09/19 10:26:45;;;;;;;;;;;21.60;43.70;;;;;;483986;246;1278;-73
2022/09/19 10:28:49;;;;;;;;;;;21.70;43.70;;;;;;483891;246;1208;-73
2022/09/19 10:30:50;;;;;;;;;;;21.60;43.70;;;;;;483851;246;1477;-74
2022/09/19 10:32:50;;;;;;;;;;;21.60;43.60;;;;;;483683;246;1502;-73
2022/09/19 10:34:50;;;;;;;;;;;21.60;43.70;;;;;;483868;246;2192;-73
2022/09/19 10:36:51;;;;;;;;;;;21.60;43.70;;;;;;483965;246;1147;-73
2022/09/19 10:38:58;;;;;;;;;;;21.60;43.80;;;;;;483949;246;1065;-73
2022/09/19 10:40:58;;;;;;;;;;;21.60;43.80;;;;;;483913;246;1538;-73
2022/09/19 10:42:58;;;;;;;;;;;21.60;43.80;;;;;;484031;246;1229;-73
2022/09/19 10:45:00;;;;;;;;;;;21.50;43.90;;;;;;484026;246;1114;-73
2022/09/19 10:47:02;;;;;;;;;;;21.50;43.90;;;;;;484111;246;1077;-73
2022/09/19 10:49:03;;;;;;;;;;;21.60;43.80;;;;;;483963;246;1476;-73
2022/09/19 10:51:04;;;;;;;;;;;21.60;43.80;;;;;;484038;246;1045;-73
2022/09/19 10:53:05;;;;;;;;;;;21.50;43.80;;;;;;483944;246;1089;-73
2022/09/19 10:55:09;;;;;;;;;;;21.50;43.90;;;;;;483856;246;2196;-74
2022/09/19 10:57:09;;;;;;;;;;;21.60;43.90;;;;;;483871;246;1442;-73
2022/09/19 10:59:10;;;;;;;;;;;21.50;43.80;;;;;;483323;246;1058;-73
2022/09/19 11:01:11;;;;;;;;;;;21.50;43.80;;;;;;483895;246;1088;-73
2022/09/19 11:03:13;;;;;;;;;;;21.60;43.80;;;;;;484000;246;1117;-74
2022/09/19 11:05:14;;;;;;;;;;;21.60;43.60;;;;;;484098;246;1535;-73
2022/09/19 11:07:16;;;;;;;;;;;21.70;43.60;;;;;;484077;246;1110;-73
2022/09/19 11:09:16;;;;;;;;;;;21.70;43.60;;;;;;483953;246;1251;-73
2022/09/19 11:11:18;;;;;;;;;;;21.60;43.60;;;;;;484133;246;1160;-73
2022/09/19 11:13:20;;;;;;;;;;;21.60;43.70;;;;;;484010;246;1045;-73
2022/09/19 11:15:23;;;;;;;;;;;21.60;43.50;;;;;;484098;246;2207;-73
2022/09/19 11:17:22;;;;;;;;;;;21.60;43.60;;;;;;483917;246;1332;-73
2022/09/19 11:19:26;;;;;;;;;;;21.60;43.60;;;;;;484054;246;1394;-73
2022/09/19 11:21:28;;;;;;;;;;;21.60;43.70;;;;;;484002;246;1356;-73
2022/09/19 11:23:28;;;;;;;;;;;21.50;43.70;;;;;;483786;246;1435;-73
2022/09/19 11:25:29;;;;;;;;;;;21.60;43.70;;;;;;483961;246;1189;-73
2022/09/19 11:27:30;;;;;;;;;;;21.60;43.60;;;;;;483767;246;1165;-73
2022/09/19 11:29:32;;;;;;;;;;;21.60;43.50;;;;;;484001;246;1147;-73
2022/09/19 11:31:33;;;;;;;;;;;21.70;43.50;;;;;;483898;246;1172;-73
2022/09/19 11:33:35;;;;;;;;;;;21.60;43.50;;;;;;483839;246;1156;-73
2022/09/19 11:35:36;;;;;;;;;;;21.60;43.60;;;;;;484019;246;2191;-73
2022/09/19 11:37:38;;;;;;;;;;;21.60;43.60;;;;;;483923;246;1275;-74
2022/09/19 11:39:39;;;;;;;;;;;21.70;43.50;;;;;;483909;246;1371;-73
2022/09/19 11:41:40;;;;;;;;;;;21.70;43.50;;;;;;483968;246;1234;-74
2022/09/19 11:43:44;;;;;;;;;;;21.70;43.50;;;;;;483854;246;1207;-74
2022/09/19 11:45:43;;;;;;;;;;;21.70;43.50;;;;;;483796;246;1371;-73
2022/09/19 11:47:50;;;;;;;;;;;21.70;43.50;;;;;;483966;246;1170;-73
2022/09/19 11:49:51;;;;;;;;;;;21.60;43.50;;;;;;483615;246;1554;-73
2022/09/19 11:51:49;;;;;;;;;;;21.70;43.40;;;;;;483642;246;1462;-74
2022/09/19 11:53:49;;;;;;;;;;;21.60;43.50;;;;;;483976;246;1345;-74
2022/09/19 11:55:54;;;;;;;;;;;21.70;43.60;;;;;;484057;246;2140;-73
2022/09/19 11:57:53;;;;;;;;;;;21.70;43.50;;;;;;483957;246;1417;-73
2022/09/19 11:59:54;;;;;;;;;;;21.70;43.60;;;;;;483880;246;1504;-73
2022/09/19 12:01:55;;;;;;;;;;;21.70;43.60;;;;;;483985;246;1206;-73
2022/09/19 12:03:56;;;;;;;;;;;21.70;43.50;;;;;;484063;246;1065;-73
2022/09/19 12:05:57;;;;;;;;;;;21.70;43.60;;;;;;484142;246;1073;-73
2022/09/19 12:08:00;;;;;;;;;;;21.70;43.50;;;;;;484087;246;1070;-73
2022/09/19 12:10:00;;;;;;;;;;;21.70;43.60;;;;;;483855;246;1438;-73
2022/09/19 12:12:01;;;;;;;;;;;21.80;43.50;;;;;;484022;246;1042;-73